Time;durP1;ratioP1;P1;durP2;ratioP2;P2;SDS_P1;SDS_P2;PMS_P1;PMS_P2;Temp;Humidity;BMP_temperature;BMP_pressure;BME280_temperature;BME280_humidity;BME280_pressure;Samples;Min_cycle;Max_cycle;Signal;HPM_P1;HPM_P2
2023/04/25 00:00:44;;;;;;;3.30;2.80;;;;;;;10.55;60.45;98357.72;5087322;28;20040;-72
2023/04/25 00:03:11;;;;;;;3.42;2.63;;;;;;;10.57;60.28;98358.44;5086309;28;20036;-72
2023/04/25 00:05:38;;;;;;;3.25;2.40;;;;;;;10.59;60.37;98368.00;5086887;28;20320;-71
2023/04/25 00:08:07;;;;;;;3.45;2.58;;;;;;;10.61;59.91;98365.22;5087253;28;20037;-72
2023/04/25 00:10:33;;;;;;;3.00;1.95;;;;;;;10.60;60.05;98368.84;5087012;28;20075;-72
2023/04/25 00:13:02;;;;;;;4.35;3.17;;;;;;;10.59;60.02;98364.50;5086986;28;20062;-72
2023/04/25 00:15:30;;;;;;;3.63;2.53;;;;;;;10.56;60.18;98364.72;5086955;28;20094;-72
2023/04/25 00:17:57;;;;;;;2.95;2.20;;;;;;;10.52;60.30;98365.88;5087208;28;20037;-71
2023/04/25 00:20:24;;;;;;;3.53;2.45;;;;;;;10.51;60.30;98366.84;5087131;28;20047;-72
2023/04/25 00:22:52;;;;;;;3.42;2.70;;;;;;;10.51;60.21;98372.13;5086026;28;20043;-72
2023/04/25 00:25:21;;;;;;;3.22;2.65;;;;;;;9.77;60.06;98244.06;5087291;28;20180;-71
2023/04/25 00:27:48;;;;;;;3.33;2.30;;;;;;;10.49;60.09;98361.66;5085665;28;20048;-71
2023/04/25 00:30:15;;;;;;;3.47;2.70;;;;;;;10.49;60.02;98352.84;5086594;28;20036;-73
2023/04/25 00:32:42;;;;;;;4.07;2.50;;;;;;;10.48;60.14;98357.31;5086204;28;20276;-73
2023/04/25 00:35:10;;;;;;;3.60;2.60;;;;;;;10.44;60.13;98355.81;5087114;28;20048;-73
2023/04/25 00:37:37;;;;;;;3.70;2.85;;;;;;;10.42;60.30;98354.25;5086430;28;20044;-72
2023/04/25 00:40:07;;;;;;;4.93;2.90;;;;;;;10.43;60.19;98355.94;5086473;28;20047;-73
2023/04/25 00:42:36;;;;;;;3.25;2.60;;;;;;;10.39;60.09;98344.72;5086160;28;20052;-73
2023/04/25 00:45:06;;;;;;;3.45;2.70;;;;;;;10.37;60.00;98346.63;5086714;28;20048;-72
2023/04/25 00:47:34;;;;;;;3.67;2.70;;;;;;;10.37;60.19;98343.13;5086728;28;20044;-71
2023/04/25 00:50:00;;;;;;;3.95;2.78;;;;;;;10.37;60.09;98351.06;5086187;28;20048;-72
2023/04/25 00:52:27;;;;;;;3.28;2.70;;;;;;;10.34;60.16;98357.44;5085404;28;20062;-71
2023/04/25 00:54:54;;;;;;;3.42;2.58;;;;;;;10.34;59.99;98356.56;5086368;28;20174;-71
2023/04/25 00:57:21;;;;;;;5.03;2.80;;;;;;;10.31;60.09;98357.63;5086412;28;20107;-72
2023/04/25 00:59:52;;;;;;;3.75;3.00;;;;;;;10.30;60.05;98350.66;5085183;28;20033;-71
2023/04/25 01:02:20;;;;;;;5.07;2.88;;;;;;;10.17;60.28;98326.81;5086057;28;20036;-71
2023/04/25 01:04:48;;;;;;;4.00;2.72;;;;;;;10.31;60.13;98360.28;5085137;28;20335;-71
2023/04/25 01:07:15;;;;;;;3.92;2.70;;;;;;;10.28;59.47;98360.50;5086209;28;20256;-71
2023/04/25 01:09:42;;;;;;;4.20;3.00;;;;;;;10.28;59.96;98352.56;5084985;28;20040;-73
2023/04/25 01:12:09;;;;;;;5.40;3.20;;;;;;;10.26;60.08;98352.66;5085011;28;20045;-73
2023/04/25 01:14:36;;;;;;;4.93;2.78;;;;;;;10.26;59.89;98357.09;5084989;28;20085;-72
2023/04/25 01:17:05;;;;;;;3.75;2.65;;;;;;;10.26;60.04;98357.09;5086090;28;20351;-73
2023/04/25 01:19:31;;;;;;;3.90;2.92;;;;;;;10.26;59.93;98357.09;5084877;28;20115;-73
2023/04/25 01:22:00;;;;;;;3.30;2.60;;;;;;;10.26;59.74;98357.97;5084861;28;20247;-73
2023/04/25 01:24:27;;;;;;;3.33;2.97;;;;;;;10.25;59.67;98345.66;5084825;28;20292;-73
2023/04/25 01:26:56;;;;;;;4.30;2.50;;;;;;;10.23;59.78;98349.38;5084819;28;20048;-73
2023/04/25 01:29:24;;;;;;;4.18;2.75;;;;;;;10.23;59.92;98349.38;5085853;28;20193;-73
2023/04/25 01:31:52;;;;;;;3.63;3.10;;;;;;;10.24;59.99;98351.91;5084729;28;20078;-71
2023/04/25 01:34:20;;;;;;;6.50;3.90;;;;;;;10.23;59.74;98344.94;5084434;28;20041;-71
2023/04/25 01:36:49;;;;;;;3.78;3.25;;;;;;;9.57;59.65;98234.84;5086106;28;20284;-71
2023/04/25 01:39:18;;;;;;;6.32;3.42;;;;;;;10.24;60.05;98345.78;5085803;28;20099;-71
2023/04/25 01:41:45;;;;;;;3.63;2.42;;;;;;;10.22;59.61;98334.44;5085267;28;20052;-72
2023/04/25 01:44:14;;;;;;;3.50;2.90;;;;;;;10.18;59.75;98332.97;5084647;28;20308;-71
2023/04/25 01:46:41;;;;;;;5.50;3.20;;;;;;;10.17;59.70;98350.66;5086002;28;20074;-70
2023/04/25 01:49:08;;;;;;;4.10;3.38;;;;;;;10.19;59.90;98347.91;5085312;28;20047;-71
2023/04/25 01:51:35;;;;;;;3.75;2.90;;;;;;;10.21;59.67;98349.50;5085140;28;20078;-71
2023/04/25 01:54:02;;;;;;;4.55;3.00;;;;;;;10.23;59.33;98350.22;5085716;28;20037;-71
2023/04/25 01:56:33;;;;;;;3.95;3.22;;;;;;;10.20;58.88;98350.44;5085187;28;20045;-71
2023/04/25 01:59:00;;;;;;;4.40;3.13;;;;;;;10.18;59.28;98338.25;5086194;28;20040;-72
2023/04/25 02:01:27;;;;;;;3.92;2.95;;;;;;;10.18;59.42;98341.75;5085576;28;20041;-73
2023/04/25 02:03:55;;;;;;;3.72;3.10;;;;;;;10.18;59.35;98347.06;5085295;28;20192;-72
2023/04/25 02:06:21;;;;;;;4.22;2.95;;;;;;;10.13;59.30;98337.72;5084463;28;20082;-73
2023/04/25 02:08:48;;;;;;;4.57;2.65;;;;;;;10.18;59.26;98349.69;5085181;28;20284;-72
2023/04/25 02:11:15;;;;;;;4.78;2.80;;;;;;;10.18;59.36;98348.84;5085777;28;20040;-73
2023/04/25 02:13:43;;;;;;;3.40;2.65;;;;;;;10.18;59.24;98340.91;5085264;28;20048;-72
2023/04/25 02:16:10;;;;;;;5.10;3.20;;;;;;;10.19;59.26;98342.59;5085468;28;20059;-73
2023/04/25 02:18:37;;;;;;;4.38;2.97;;;;;;;10.15;59.29;98343.78;5085468;28;20108;-72
2023/04/25 02:21:04;;;;;;;4.70;3.15;;;;;;;10.12;59.38;98343.97;5084384;28;20041;-73
2023/04/25 02:23:31;;;;;;;3.42;2.88;;;;;;;10.10;59.64;98330.00;5085122;28;20296;-73
2023/04/25 02:25:58;;;;;;;3.65;3.13;;;;;;;10.07;59.54;98322.28;5084265;28;20036;-73
2023/04/25 02:28:24;;;;;;;4.72;3.55;;;;;;;10.10;59.59;98335.31;5085123;28;20149;-73
2023/04/25 02:30:54;;;;;;;5.07;3.38;;;;;;;10.08;59.36;98342.50;5084360;28;20358;-73
2023/04/25 02:33:20;;;;;;;4.22;3.38;;;;;;;10.06;59.51;98337.31;5085552;28;20040;-73
2023/04/25 02:35:47;;;;;;;3.67;3.28;;;;;;;10.06;59.69;98345.25;5084124;28;20036;-72
2023/04/25 02:38:14;;;;;;;3.88;3.30;;;;;;;10.01;59.67;98339.44;5084081;28;20047;-72
2023/04/25 02:40:41;;;;;;;6.03;3.65;;;;;;;10.00;59.70;98344.84;5084931;28;20039;-73
2023/04/25 02:43:08;;;;;;;3.90;3.50;;;;;;;9.99;59.79;98341.34;5083933;28;20373;-73
2023/04/25 02:45:35;;;;;;;3.80;3.15;;;;;;;9.97;59.80;98331.81;5085490;28;20051;-73
2023/04/25 02:48:03;;;;;;;3.38;2.72;;;;;;;9.93;59.88;98333.81;5089107;28;20044;-72
2023/04/25 02:50:30;;;;;;;4.28;3.22;;;;;;;9.89;59.87;98330.53;5088688;28;20037;-72
2023/04/25 02:52:56;;;;;;;3.42;2.95;;;;;;;9.77;59.88;98310.19;5088159;28;20045;-72
2023/04/25 02:55:23;;;;;;;4.78;3.67;;;;;;;9.51;59.69;98260.88;5088715;28;20068;-73
2023/04/25 02:57:50;;;;;;;3.78;2.92;;;;;;;9.85;59.78;98325.56;5088922;28;20051;-73
2023/04/25 03:00:17;;;;;;;3.38;2.75;;;;;;;9.86;59.74;98321.97;5088298;28;20044;-73
2023/04/25 03:02:44;;;;;;;4.47;3.35;;;;;;;9.86;59.94;98317.50;5088271;28;20090;-73
2023/04/25 03:05:12;;;;;;;4.35;3.22;;;;;;;9.85;59.69;98321.09;5088215;28;20044;-73
2023/04/25 03:07:40;;;;;;;4.88;3.05;;;;;;;9.53;59.82;98266.91;5088503;28;20055;-72
2023/04/25 03:10:07;;;;;;;3.72;3.08;;;;;;;9.68;59.46;98288.81;5087240;28;20050;-72
2023/04/25 03:12:34;;;;;;;4.00;2.92;;;;;;;9.87;59.65;98321.84;5088153;28;20046;-72
2023/04/25 03:15:01;;;;;;;3.85;3.08;;;;;;;9.87;59.54;98323.66;5088389;28;20090;-73
2023/04/25 03:17:27;;;;;;;4.40;2.88;;;;;;;9.67;59.58;98287.97;5088137;28;20040;-72
2023/04/25 03:19:55;;;;;;;4.15;3.20;;;;;;;9.88;59.53;98322.69;5088295;28;20036;-72
2023/04/25 03:22:23;;;;;;;4.93;4.00;;;;;;;9.86;59.36;98333.38;5087949;28;20044;-72
2023/04/25 03:24:50;;;;;;;5.35;3.30;;;;;;;9.82;59.53;98320.47;5087880;28;20045;-73
2023/04/25 03:27:17;;;;;;;6.68;3.55;;;;;;;9.30;59.46;98258.69;5087841;28;20041;-73
2023/04/25 03:29:44;;;;;;;4.90;3.67;;;;;;;9.77;59.61;98331.38;5087986;28;20032;-72
2023/04/25 03:32:10;;;;;;;4.75;3.40;;;;;;;9.73;59.69;98336.97;5087752;28;20049;-72
2023/04/25 03:34:37;;;;;;;4.90;3.70;;;;;;;9.72;59.60;98325.53;5087509;28;20044;-72
2023/04/25 03:37:04;;;;;;;4.50;3.45;;;;;;;9.52;59.77;98308.38;5087622;28;20094;-73
2023/04/25 03:39:32;;;;;;;5.07;3.40;;;;;;;9.70;59.75;98330.09;5087574;28;20040;-73
2023/04/25 03:41:59;;;;;;;3.95;3.15;;;;;;;9.69;59.53;98332.84;5087421;28;20200;-73
2023/04/25 03:44:25;;;;;;;5.40;3.17;;;;;;;9.68;59.65;98339.09;5087594;28;20045;-72
2023/04/25 03:46:52;;;;;;;4.47;3.38;;;;;;;9.66;59.72;98335.69;5086664;28;20040;-73
2023/04/25 03:49:19;;;;;;;4.47;3.22;;;;;;;9.65;59.58;98332.19;5087918;28;20044;-73
2023/04/25 03:51:45;;;;;;;3.67;3.20;;;;;;;9.64;59.44;98343.72;5086561;28;20044;-72
2023/04/25 03:54:12;;;;;;;4.15;3.00;;;;;;;9.63;59.52;98339.41;5087689;28;20098;-72
2023/04/25 03:56:40;;;;;;;5.05;3.10;;;;;;;9.58;59.28;98345.00;5087336;28;20297;-72
2023/04/25 03:59:07;;;;;;;3.80;3.20;;;;;;;9.54;59.43;98342.66;5087282;28;20044;-73
2023/04/25 04:01:35;;;;;;;5.25;3.22;;;;;;;9.54;59.44;98345.31;5087501;28;20036;-73
2023/04/25 04:04:01;;;;;;;4.50;3.33;;;;;;;9.20;59.33;98294.63;5087126;28;20036;-72
2023/04/25 04:06:28;;;;;;;4.13;3.20;;;;;;;8.69;59.17;98222.25;5087306;28;20265;-73
2023/04/25 04:08:55;;;;;;;4.47;3.10;;;;;;;9.46;59.31;98358.19;5087163;28;20224;-73
2023/04/25 04:11:22;;;;;;;6.63;3.15;;;;;;;9.44;59.19;98358.28;5086187;28;20041;-73
2023/04/25 04:13:50;;;;;;;4.28;3.25;;;;;;;9.41;59.18;98360.28;5086107;28;20044;-72
2023/04/25 04:16:17;;;;;;;3.83;2.90;;;;;;;9.38;59.06;98358.66;5086073;28;20036;-72
2023/04/25 04:18:44;;;;;;;4.00;3.22;;;;;;;9.05;59.46;98308.81;5086882;28;20243;-72
2023/04/25 04:21:10;;;;;;;4.60;3.03;;;;;;;9.36;59.23;98360.56;5085976;28;20071;-72
2023/04/25 04:23:37;;;;;;;4.75;3.35;;;;;;;9.35;59.25;98365.94;5087179;28;20044;-73
2023/04/25 04:26:04;;;;;;;5.07;3.40;;;;;;;9.38;59.27;98365.75;5087000;28;20044;-72
2023/04/25 04:28:31;;;;;;;5.32;3.65;;;;;;;9.39;59.11;98363.00;5087236;28;20053;-72
2023/04/25 04:31:00;;;;;;;4.75;3.30;;;;;;;9.38;59.10;98366.59;5086813;28;20300;-72
2023/04/25 04:33:27;;;;;;;4.72;3.50;;;;;;;9.36;59.13;98376.44;5086835;28;20050;-73
2023/04/25 04:35:55;;;;;;;3.90;3.50;;;;;;;9.37;59.06;98370.19;5086741;28;20062;-72
2023/04/25 04:38:22;;;;;;;4.13;3.28;;;;;;;9.39;59.25;98372.72;5086748;28;20078;-73
2023/04/25 04:40:50;;;;;;;4.75;3.92;;;;;;;8.38;59.10;98211.97;5086697;28;20106;-73
2023/04/25 04:43:16;;;;;;;5.25;4.03;;;;;;;9.41;58.99;98382.28;5085777;28;20115;-73
2023/04/25 04:45:44;;;;;;;5.13;3.47;;;;;;;9.41;59.00;98370.88;5085769;28;20040;-73
2023/04/25 04:48:13;;;;;;;6.13;3.58;;;;;;;9.41;58.95;98379.66;5086278;28;20040;-72
2023/04/25 04:50:41;;;;;;;4.55;3.65;;;;;;;6.04;58.89;97815.56;5086727;28;20259;-73
2023/04/25 04:53:08;;;;;;;4.65;3.40;;;;;;;9.43;59.04;98367.16;5085336;28;20036;-72
2023/04/25 04:55:35;;;;;;;6.18;3.67;;;;;;;9.45;59.13;98372.38;5085435;28;20036;-72
2023/04/25 04:58:01;;;;;;;4.35;3.80;;;;;;;9.45;58.98;98367.91;5086249;28;20071;-73
2023/04/25 05:00:29;;;;;;;5.97;4.22;;;;;;;9.44;58.87;98371.50;5085183;28;20032;-72
2023/04/25 05:02:55;;;;;;;5.15;3.83;;;;;;;9.43;58.81;98375.09;5086137;28;20236;-72
2023/04/25 05:05:23;;;;;;;4.47;3.40;;;;;;;9.45;58.95;98372.38;5086204;28;20105;-73
2023/04/25 05:07:50;;;;;;;5.15;3.55;;;;;;;9.43;58.85;98375.09;5084700;28;20050;-72
2023/04/25 05:10:18;;;;;;;5.68;3.53;;;;;;;9.40;58.82;98380.59;5085853;28;20047;-73
2023/04/25 05:12:45;;;;;;;4.60;3.70;;;;;;;9.38;58.84;98378.97;5085010;28;20178;-72
2023/04/25 05:15:12;;;;;;;4.72;3.88;;;;;;;9.36;58.84;98372.94;5085186;28;20086;-72
2023/04/25 05:17:40;;;;;;;5.88;4.47;;;;;;;9.12;58.93;98344.47;5085035;28;20040;-73
2023/04/25 05:20:09;;;;;;;6.05;3.47;;;;;;;9.12;59.09;98348.91;5086049;28;20188;-72
2023/04/25 05:22:37;;;;;;;5.43;3.67;;;;;;;7.76;59.10;98122.69;5085721;28;20040;-73
2023/04/25 05:25:04;;;;;;;4.10;3.40;;;;;;;9.21;59.09;98378.28;5085908;28;20040;-72
2023/04/25 05:27:31;;;;;;;4.00;3.20;;;;;;;9.19;59.21;98487.69;5084686;28;20040;-73
2023/04/25 05:29:57;;;;;;;4.95;3.63;;;;;;;9.16;59.28;98375.06;5084578;28;20032;-72
2023/04/25 05:32:24;;;;;;;6.25;3.58;;;;;;;9.18;59.18;98378.44;5086195;28;20098;-72
2023/04/25 05:34:52;;;;;;;6.20;3.92;;;;;;;9.19;59.24;98374.84;5085021;28;20071;-73
2023/04/25 05:37:19;;;;;;;5.63;3.97;;;;;;;9.17;59.21;98374.09;5084746;28;20043;-72
2023/04/25 05:39:47;;;;;;;5.10;3.85;;;;;;;9.18;59.13;98367.03;5085531;28;20036;-73
2023/04/25 05:42:14;;;;;;;3.78;3.40;;;;;;;9.20;59.09;98360.72;5084523;28;20063;-73
2023/04/25 05:44:41;;;;;;;5.00;3.88;;;;;;;9.27;59.07;98358.53;5085528;28;20044;-72
2023/04/25 05:47:08;;;;;;;5.40;3.83;;;;;;;9.30;58.81;98359.16;5085352;28;20086;-73
2023/04/25 05:49:34;;;;;;;5.00;4.03;;;;;;;9.35;58.70;98355.38;5085066;28;20224;-72
2023/04/25 05:52:01;;;;;;;7.20;4.18;;;;;;;9.39;58.60;98357.72;5085631;28;20297;-72
2023/04/25 05:54:33;;;;;;;4.22;3.67;;;;;;;9.43;58.57;98350.47;5084465;28;20047;-72
2023/04/25 05:57:02;;;;;;;5.03;4.03;;;;;;;9.32;58.46;98337.91;5085563;28;20051;-72
2023/04/25 05:59:29;;;;;;;8.40;3.63;;;;;;;9.54;58.02;98362.03;5085203;28;20363;-72
2023/04/25 06:01:55;;;;;;;5.38;4.03;;;;;;;9.58;57.95;98367.94;5085594;28;20044;-73
2023/04/25 06:04:22;;;;;;;4.80;3.47;;;;;;;9.65;57.86;98379.81;5084449;28;20102;-72
2023/04/25 06:06:49;;;;;;;4.47;3.65;;;;;;;9.68;57.61;98361.09;5085400;28;20303;-73
2023/04/25 06:09:16;;;;;;;3.95;3.33;;;;;;;9.77;57.40;98356.97;5084968;28;20044;-73
2023/04/25 06:11:42;;;;;;;5.18;3.72;;;;;;;9.85;57.43;98352.88;5084268;28;20308;-73
2023/04/25 06:14:13;;;;;;;4.65;3.97;;;;;;;9.98;57.34;98357.31;5085096;28;20237;-73
2023/04/25 06:16:40;;;;;;;4.10;3.30;;;;;;;10.11;56.90;98358.19;5084982;28;20051;-73
2023/04/25 06:19:06;;;;;;;4.82;4.13;;;;;;;10.21;56.64;98351.28;5084959;28;20090;-73
2023/04/25 06:21:33;;;;;;;5.18;3.55;;;;;;;10.35;56.31;98356.47;5087946;28;20044;-73
2023/04/25 06:24:00;;;;;;;5.40;4.00;;;;;;;10.49;55.88;98348.41;5088969;28;20048;-73
2023/04/25 06:26:27;;;;;;;5.43;4.00;;;;;;;10.67;55.38;98348.91;5088625;28;20044;-73
2023/04/25 06:28:53;;;;;;;4.88;3.55;;;;;;;10.85;55.25;98346.75;5089477;28;20094;-73
2023/04/25 06:31:21;;;;;;;4.03;3.28;;;;;;;11.07;54.48;98338.94;5088620;28;20047;-73
2023/04/25 06:33:49;;;;;;;3.78;3.38;;;;;;;11.31;54.02;98343.41;5088712;28;20293;-73
2023/04/25 06:36:16;;;;;;;5.57;4.10;;;;;;;11.07;53.42;98256.75;5088870;28;20097;-72
2023/04/25 06:38:42;;;;;;;4.03;3.28;;;;;;;11.87;53.00;98339.13;5088268;28;20048;-73
2023/04/25 06:41:09;;;;;;;5.35;3.90;;;;;;;12.22;52.16;98338.28;5088565;28;20060;-73
2023/04/25 06:43:36;;;;;;;3.90;3.10;;;;;;;12.59;51.40;98330.91;5088653;28;20036;-73
2023/04/25 06:46:03;;;;;;;4.22;3.58;;;;;;;12.94;50.98;98323.63;5087606;28;20119;-73
2023/04/25 06:48:31;;;;;;;3.80;3.10;;;;;;;13.29;49.84;98315.41;5088361;28;20087;-73
2023/04/25 06:50:57;;;;;;;5.25;3.70;;;;;;;13.69;49.22;98312.97;5087526;28;20058;-72
2023/04/25 06:53:24;;;;;;;6.95;3.40;;;;;;;13.27;48.68;98184.31;5088400;28;20047;-73
2023/04/25 06:55:51;;;;;;;4.93;3.42;;;;;;;14.30;48.26;98310.38;5087032;28;20056;-73
2023/04/25 06:58:18;;;;;;;5.60;3.42;;;;;;;14.58;47.80;98303.50;5088172;28;20066;-73
2023/04/25 07:00:44;;;;;;;6.15;3.80;;;;;;;14.86;47.22;98299.25;5088000;28;20036;-73
2023/04/25 07:03:11;;;;;;;4.57;3.83;;;;;;;15.13;46.64;98292.44;5087243;28;20059;-73
2023/04/25 07:05:40;;;;;;;7.22;4.35;;;;;;;15.38;46.40;98290.06;5087138;28;20182;-73
2023/04/25 07:08:06;;;;;;;5.45;4.32;;;;;;;15.55;45.82;98287.66;5087939;28;20046;-73
2023/04/25 07:10:33;;;;;;;5.40;3.38;;;;;;;15.70;45.59;98291.63;5088005;28;20044;-73
2023/04/25 07:13:00;;;;;;;4.78;3.75;;;;;;;15.89;45.40;98288.06;5088293;28;20117;-73
2023/04/25 07:15:27;;;;;;;7.07;4.45;;;;;;;15.97;45.21;98266.81;5088053;28;20055;-73
2023/04/25 07:17:53;;;;;;;7.30;3.97;;;;;;;16.38;44.68;98294.97;5088604;28;20208;-73
2023/04/25 07:20:22;;;;;;;4.63;3.50;;;;;;;16.38;44.27;98281.59;5088077;28;20203;-73
2023/04/25 07:22:53;;;;;;;4.65;3.20;;;;;;;16.11;43.26;98225.41;5087794;28;20067;-73
2023/04/25 07:25:20;;;;;;;4.38;3.13;;;;;;;16.41;44.32;98243.84;5086725;28;20037;-73
2023/04/25 07:27:47;;;;;;;4.28;3.10;;;;;;;16.76;44.21;98274.41;5087865;28;20036;-72
2023/04/25 07:30:14;;;;;;;4.45;3.00;;;;;;;16.92;44.12;98267.38;5087863;28;20085;-73
2023/04/25 07:32:40;;;;;;;4.32;3.00;;;;;;;17.11;43.97;98276.28;5086890;28;20189;-73
2023/04/25 07:35:08;;;;;;;3.80;2.88;;;;;;;16.92;43.61;98229.06;5086646;28;20113;-73
2023/04/25 07:37:35;;;;;;;5.13;3.20;;;;;;;17.33;43.71;98267.81;5087456;28;20044;-73
2023/04/25 07:40:05;;;;;;;5.63;3.25;;;;;;;17.55;42.87;98262.00;5086660;28;20041;-72
2023/04/25 07:42:32;;;;;;;4.40;3.20;;;;;;;17.76;43.06;98264.38;5086330;28;20216;-73
2023/04/25 07:44:58;;;;;;;3.30;2.80;;;;;;;17.93;42.77;98265.31;5087649;28;20107;-73
2023/04/25 07:47:25;;;;;;;4.30;2.95;;;;;;;18.07;42.27;98261.22;5086508;28;20048;-73
2023/04/25 07:49:52;;;;;;;4.68;3.22;;;;;;;17.81;42.03;98192.38;5087436;28;20094;-73
2023/04/25 07:52:19;;;;;;;4.47;2.83;;;;;;;18.30;41.58;98258.84;5086345;28;20048;-73
2023/04/25 07:54:47;;;;;;;4.20;2.88;;;;;;;18.29;41.75;98260.69;5087519;28;20048;-73
2023/04/25 07:57:16;;;;;;;4.22;3.10;;;;;;;17.53;41.23;98131.88;5086458;28;20047;-73
2023/04/25 07:59:44;;;;;;;4.53;3.30;;;;;;;18.45;41.70;98247.34;5086591;28;20316;-73
2023/04/25 08:02:11;;;;;;;4.07;3.40;;;;;;;18.05;41.16;98151.47;5087042;28;20098;-73
2023/04/25 08:04:37;;;;;;;4.75;3.10;;;;;;;18.77;41.14;98243.13;5087210;28;20227;-73
2023/04/25 08:07:04;;;;;;;3.70;2.67;;;;;;;18.90;40.61;98236.28;5086147;28;20118;-73
2023/04/25 08:09:34;;;;;;;3.80;3.00;;;;;;;18.97;40.88;98249.91;5086894;28;20045;-73
2023/04/25 08:12:01;;;;;;;4.05;3.05;;;;;;;19.01;40.82;98245.88;5087054;28;20040;-72
2023/04/25 08:14:35;;;;;;;4.57;3.17;;;;;;;18.49;40.40;98144.06;5053026;28;20064;-73
2023/04/25 08:17:03;;;;;;;3.88;2.83;;;;;;;19.20;40.57;98226.78;5087096;28;20173;-72
2023/04/25 08:19:29;;;;;;;4.28;3.13;;;;;;;19.15;40.50;98229.13;5087065;28;20036;-73
2023/04/25 08:21:56;;;;;;;4.55;2.80;;;;;;;18.97;40.62;98224.91;5086762;28;20148;-73
2023/04/25 08:24:23;;;;;;;3.97;3.13;;;;;;;18.78;40.90;98237.59;5086621;28;20044;-73
2023/04/25 08:26:50;;;;;;;4.20;3.17;;;;;;;18.72;41.21;98230.19;5086321;28;20085;-72
2023/04/25 08:29:16;;;;;;;3.60;2.72;;;;;;;18.31;40.99;98175.53;5086837;28;20227;-74
2023/04/25 08:31:45;;;;;;;5.43;3.10;;;;;;;18.63;40.36;98220.44;5085411;28;20053;-74
2023/04/25 08:34:12;;;;;;;5.35;2.45;;;;;;;18.74;40.57;98217.47;5085650;28;20059;-73
2023/04/25 08:36:40;;;;;;;4.85;2.97;;;;;;;18.59;39.92;98162.75;5085535;28;20316;-74
2023/04/25 08:39:07;;;;;;;3.78;3.05;;;;;;;18.98;40.12;98219.34;5085917;28;20036;-74
2023/04/25 08:41:34;;;;;;;3.80;3.38;;;;;;;19.06;40.41;98211.31;5086399;28;20319;-73
2023/04/25 08:44:01;;;;;;;3.58;2.80;;;;;;;19.16;39.66;98189.69;5085408;28;20255;-73
2023/04/25 08:46:30;;;;;;;4.93;3.35;;;;;;;19.55;39.62;98208.69;5085963;28;20171;-73
2023/04/25 08:49:01;;;;;;;4.93;2.83;;;;;;;19.71;37.02;98203.28;5086401;28;20076;-73
2023/04/25 08:51:32;;;;;;;4.32;2.85;;;;;;;19.50;37.55;98211.88;5086098;28;20055;-74
2023/04/25 08:54:10;;;;;;;3.95;2.67;;;;;;;19.24;36.97;98203.09;5086579;28;20036;-74
2023/04/25 08:56:38;;;;;;;3.78;3.10;;;;;;;19.02;39.57;98209.13;5086181;28;20044;-73
2023/04/25 08:59:07;;;;;;;3.60;2.90;;;;;;;18.83;40.07;98215.63;5085491;28;20075;-73
2023/04/25 09:01:35;;;;;;;5.05;3.35;;;;;;;18.21;40.62;98139.97;5085858;28;20158;-74
2023/04/25 09:04:03;;;;;;;5.07;3.35;;;;;;;18.18;40.69;98175.16;5085092;28;20043;-74
2023/04/25 09:06:32;;;;;;;8.38;3.67;;;;;;;18.33;40.98;98226.34;5085539;28;20032;-74
2023/04/25 09:09:04;;;;;;;3.63;2.80;;;;;;;18.04;39.63;98224.84;5085953;28;20063;-73
2023/04/25 09:11:31;;;;;;;4.72;2.95;;;;;;;17.82;41.01;98230.75;5085013;28;20048;-73
2023/04/25 09:14:12;;;;;;;5.13;3.08;;;;;;;17.55;38.67;98224.50;5084951;28;20170;-73
2023/04/25 09:16:59;;;;;;;3.28;2.35;;;;;;;17.32;38.65;98225.97;5085023;28;20045;-73
2023/04/25 09:19:29;;;;;;;4.07;2.75;;;;;;;17.07;41.82;98235.59;5085728;28;20119;-73
2023/04/25 09:21:57;;;;;;;4.13;2.90;;;;;;;16.89;43.16;98238.25;5084751;28;20052;-74
2023/04/25 09:24:35;;;;;;;4.47;2.95;;;;;;;16.68;42.40;98235.00;5085639;28;20040;-73
2023/04/25 09:27:04;;;;;;;4.43;3.20;;;;;;;16.47;43.71;98251.28;5085523;28;20064;-73
2023/04/25 09:29:32;;;;;;;4.18;2.72;;;;;;;16.36;44.23;98263.00;5068943;28;20040;-74
2023/04/25 09:32:13;;;;;;;3.58;2.78;;;;;;;16.02;42.44;98245.84;5085740;28;20036;-74
2023/04/25 09:34:43;;;;;;;3.78;2.85;;;;;;;15.88;44.43;98276.53;5085448;28;20059;-74
2023/04/25 09:37:10;;;;;;;3.78;3.10;;;;;;;15.42;45.49;98263.06;5085722;28;20067;-73
2023/04/25 09:39:38;;;;;;;4.55;3.35;;;;;;;14.69;45.90;98182.59;5085578;28;20060;-73
2023/04/25 09:42:05;;;;;;;4.93;2.72;;;;;;;14.87;46.74;98239.59;5083934;28;20063;-73
2023/04/25 09:44:32;;;;;;;4.38;2.90;;;;;;;15.01;46.95;98289.03;5085725;28;20044;-73
2023/04/25 09:46:59;;;;;;;4.75;3.13;;;;;;;14.88;47.16;98275.97;5085258;28;20049;-72
2023/04/25 09:49:27;;;;;;;3.72;2.42;;;;;;;14.75;46.84;98278.03;5085498;28;20041;-73
2023/04/25 09:52:00;;;;;;;3.40;2.15;;;;;;;14.57;45.31;98279.59;5067823;28;20356;-73
2023/04/25 09:54:27;;;;;;;2.75;1.70;;;;;;;14.47;45.90;98284.06;5084565;28;20040;-73
2023/04/25 09:56:55;;;;;;;2.60;1.77;;;;;;;13.73;45.93;98178.59;5084545;28;20041;-73
2023/04/25 09:59:22;;;;;;;2.67;1.80;;;;;;;14.28;46.21;98275.03;5084687;28;20036;-74
2023/04/25 10:01:50;;;;;;;4.03;2.00;;;;;;;14.23;46.08;98282.56;5085222;28;20195;-74
2023/04/25 10:04:21;;;;;;;2.75;1.80;;;;;;;14.18;45.64;98282.13;5085187;28;20094;-73
2023/04/25 10:06:50;;;;;;;3.17;2.10;;;;;;;14.13;45.60;98279.00;5085679;28;20086;-73
2023/04/25 10:09:21;;;;;;;4.32;1.55;;;;;;;14.12;45.69;98274.66;5085103;28;20048;-74
2023/04/25 10:11:48;;;;;;;3.17;1.85;;;;;;;14.16;45.82;98280.56;5083967;28;20050;-74
2023/04/25 10:14:15;;;;;;;3.47;1.75;;;;;;;14.18;45.43;98283.94;5084890;28;20185;-73
2023/04/25 10:16:42;;;;;;;2.20;1.58;;;;;;;14.14;45.48;98278.03;5084938;28;20059;-74
2023/04/25 10:19:10;;;;;;;4.57;1.92;;;;;;;14.10;45.53;98279.28;5085136;28;20040;-73
2023/04/25 10:21:50;;;;;;;3.13;1.70;;;;;;;14.06;45.19;98285.84;5085059;28;20033;-73
2023/04/25 10:24:20;;;;;;;3.13;1.90;;;;;;;13.92;45.69;98251.56;5085001;28;20094;-73
2023/04/25 10:26:47;;;;;;;2.42;1.58;;;;;;;14.17;45.46;98274.25;5084937;28;20044;-74
2023/04/25 10:29:23;;;;;;;2.75;1.83;;;;;;;14.18;44.76;98270.63;5084895;28;20040;-73
2023/04/25 10:31:50;;;;;;;3.13;2.13;;;;;;;14.22;45.19;98264.88;5084853;28;20036;-73
2023/04/25 10:34:17;;;;;;;2.58;1.80;;;;;;;14.25;44.60;98253.97;5084928;28;20036;-73
2023/04/25 10:36:50;;;;;;;2.38;1.40;;;;;;;14.20;43.73;98250.84;5085063;28;20146;-74
2023/04/25 10:39:24;;;;;;;2.30;1.40;;;;;;;14.17;44.32;98244.97;5084780;28;20052;-74
2023/04/25 10:41:56;;;;;;;2.63;1.60;;;;;;;14.11;44.04;98236.53;5084460;28;20259;-74
2023/04/25 10:44:23;;;;;;;2.45;1.60;;;;;;;13.99;44.59;98216.28;5083820;28;20123;-73
2023/04/25 10:46:50;;;;;;;4.13;1.88;;;;;;;14.17;44.35;98231.63;5084847;28;20052;-74
2023/04/25 10:49:31;;;;;;;3.50;1.92;;;;;;;14.26;43.22;98229.00;5083824;28;20328;-73
2023/04/25 10:52:15;;;;;;;2.55;1.60;;;;;;;14.45;43.09;98226.41;5084406;28;20047;-73
2023/04/25 10:54:48;;;;;;;3.38;1.88;;;;;;;14.12;43.36;98136.13;5084775;28;20150;-73
2023/04/25 10:57:37;;;;;;;3.00;1.95;;;;;;;14.86;42.17;98203.25;5083587;28;20041;-73
2023/04/25 11:00:13;;;;;;;3.03;1.83;;;;;;;14.99;42.61;98189.63;5084541;28;20040;-73
2023/04/25 11:02:42;;;;;;;3.70;2.05;;;;;;;15.29;42.72;98196.63;5083321;28;20063;-73
2023/04/25 11:05:10;;;;;;;3.42;1.88;;;;;;;14.52;42.69;98028.56;5084724;28;20044;-73
2023/04/25 11:07:45;;;;;;;3.05;1.98;;;;;;;15.61;42.08;98196.28;5087430;28;20233;-72
2023/04/25 11:10:14;;;;;;;4.07;2.20;;;;;;;15.83;42.24;98173.75;5088346;28;20299;-73
2023/04/25 11:12:41;;;;;;;2.90;2.20;;;;;;;15.74;42.24;98123.88;5088486;28;20066;-73
2023/04/25 11:15:09;;;;;;;2.92;2.00;;;;;;;16.21;41.51;98160.22;5088254;28;20056;-73
2023/04/25 11:17:36;;;;;;;4.72;2.65;;;;;;;16.42;41.15;98167.16;5087918;28;20036;-73
2023/04/25 11:20:06;;;;;;;4.93;2.10;;;;;;;15.90;40.34;98114.25;5086937;28;20048;-73
2023/04/25 11:22:38;;;;;;;4.22;2.35;;;;;;;16.23;39.29;98149.38;5087992;28;20077;-73
2023/04/25 11:25:09;;;;;;;3.95;2.20;;;;;;;15.91;39.86;98120.44;5088174;28;20041;-73
2023/04/25 11:27:50;;;;;;;4.03;2.00;;;;;;;16.27;40.09;98199.72;5087044;28;20028;-73
2023/04/25 11:30:17;;;;;;;4.00;2.47;;;;;;;13.09;41.32;97750.50;5088052;28;20032;-73
2023/04/25 11:32:44;;;;;;;4.00;2.05;;;;;;;15.59;42.87;98273.88;5087224;28;20064;-73
2023/04/25 11:35:11;;;;;;;3.33;2.08;;;;;;;15.05;44.18;98279.78;5086335;28;20044;-73
2023/04/25 11:37:39;;;;;;;3.60;2.30;;;;;;;14.55;45.92;98300.22;5087657;28;20071;-73
2023/04/25 11:40:09;;;;;;;4.28;1.90;;;;;;;14.06;47.03;98317.81;5087351;28;20037;-73